sensor_id;sensor_type;location;lat;lon;timestamp;pressure;altitude;pressure_sealevel;temperature;humidity
25944;BME280;13742;49.306;8.636;2023-08-12T00:00:39;100632.59;;;23.45;67.48
25944;BME280;13742;49.306;8.636;2023-08-12T00:01:39;100632.02;;;23.45;67.20
25944;BME280;13742;49.306;8.636;2023-08-12T00:02:43;100629.55;;;23.45;67.27
25944;BME280;13742;49.306;8.636;2023-08-12T00:03:39;100625.00;;;23.45;66.92
25944;BME280;13742;49.306;8.636;2023-08-12T00:04:39;100624.47;;;23.44;67.14
25944;BME280;13742;49.306;8.636;2023-08-12T00:05:40;100619.61;;;23.45;67.29
25944;BME280;13742;49.306;8.636;2023-08-12T00:06:39;100617.83;;;23.44;67.08
25944;BME280;13742;49.306;8.636;2023-08-12T00:07:41;100619.17;;;23.44;66.98
25944;BME280;13742;49.306;8.636;2023-08-12T00:08:39;100616.21;;;23.44;67.09
25944;BME280;13742;49.306;8.636;2023-08-12T00:09:39;100618.33;;;23.44;67.12
25944;BME280;13742;49.306;8.636;2023-08-12T00:10:39;100616.64;;;23.44;67.55
25944;BME280;13742;49.306;8.636;2023-08-12T00:11:39;100618.50;;;23.44;67.79
25944;BME280;13742;49.306;8.636;2023-08-12T00:12:39;100619.34;;;23.44;68.15
25944;BME280;13742;49.306;8.636;2023-08-12T00:13:39;100619.81;;;23.43;67.94
25944;BME280;13742;49.306;8.636;2023-08-12T00:14:39;100617.26;;;23.42;67.27
25944;BME280;13742;49.306;8.636;2023-08-12T00:15:40;100616.75;;;23.42;67.82
25944;BME280;13742;49.306;8.636;2023-08-12T00:16:39;100615.71;;;23.41;67.62
25944;BME280;13742;49.306;8.636;2023-08-12T00:17:41;100617.17;;;23.39;67.44
25944;BME280;13742;49.306;8.636;2023-08-12T00:18:39;100618.08;;;23.38;67.28
25944;BME280;13742;49.306;8.636;2023-08-12T00:19:39;100614.41;;;23.37;67.32
25944;BME280;13742;49.306;8.636;2023-08-12T00:20:39;100614.98;;;23.37;67.82
25944;BME280;13742;49.306;8.636;2023-08-12T00:21:39;100615.22;;;23.36;68.02
25944;BME280;13742;49.306;8.636;2023-08-12T00:22:39;100610.09;;;23.34;68.11
25944;BME280;13742;49.306;8.636;2023-08-12T00:23:40;100612.43;;;23.33;67.70
25944;BME280;13742;49.306;8.636;2023-08-12T00:24:40;100610.07;;;23.32;67.30
25944;BME280;13742;49.306;8.636;2023-08-12T00:25:39;100609.77;;;23.32;67.39
25944;BME280;13742;49.306;8.636;2023-08-12T00:26:39;100607.95;;;23.30;67.45
25944;BME280;13742;49.306;8.636;2023-08-12T00:27:39;100607.28;;;23.29;67.76
25944;BME280;13742;49.306;8.636;2023-08-12T00:28:39;100603.38;;;23.29;67.66
25944;BME280;13742;49.306;8.636;2023-08-12T00:29:39;100607.22;;;23.28;67.59
25944;BME280;13742;49.306;8.636;2023-08-12T00:30:39;100605.50;;;23.27;67.19
25944;BME280;13742;49.306;8.636;2023-08-12T00:31:39;100604.46;;;23.26;67.84
25944;BME280;13742;49.306;8.636;2023-08-12T00:32:40;100605.41;;;23.24;68.00
25944;BME280;13742;49.306;8.636;2023-08-12T00:33:39;100602.24;;;23.22;67.93
25944;BME280;13742;49.306;8.636;2023-08-12T00:34:39;100599.48;;;23.18;68.25
25944;BME280;13742;49.306;8.636;2023-08-12T00:35:39;100601.14;;;23.17;68.56
25944;BME280;13742;49.306;8.636;2023-08-12T00:36:39;100599.23;;;23.14;68.79
25944;BME280;13742;49.306;8.636;2023-08-12T00:37:39;100600.91;;;23.12;68.55
25944;BME280;13742;49.306;8.636;2023-08-12T00:38:39;100598.83;;;23.10;68.85
25944;BME280;13742;49.306;8.636;2023-08-12T00:39:39;100595.56;;;23.08;68.95
25944;BME280;13742;49.306;8.636;2023-08-12T00:40:39;100594.22;;;23.07;68.82
25944;BME280;13742;49.306;8.636;2023-08-12T00:41:39;100593.24;;;23.05;68.54
25944;BME280;13742;49.306;8.636;2023-08-12T00:42:39;100592.88;;;23.03;69.18
25944;BME280;13742;49.306;8.636;2023-08-12T00:43:39;100587.59;;;23.02;69.60
25944;BME280;13742;49.306;8.636;2023-08-12T00:44:39;100588.67;;;23.01;69.24
25944;BME280;13742;49.306;8.636;2023-08-12T00:45:40;100589.75;;;22.98;69.54
25944;BME280;13742;49.306;8.636;2023-08-12T00:46:40;100587.43;;;22.97;69.75
25944;BME280;13742;49.306;8.636;2023-08-12T00:47:40;100583.02;;;22.93;70.01
25944;BME280;13742;49.306;8.636;2023-08-12T00:48:40;100583.59;;;22.90;70.19
25944;BME280;13742;49.306;8.636;2023-08-12T00:49:39;100586.09;;;22.86;70.51
25944;BME280;13742;49.306;8.636;2023-08-12T00:50:39;100583.73;;;22.84;70.76
25944;BME280;13742;49.306;8.636;2023-08-12T00:51:39;100583.23;;;22.81;70.91
25944;BME280;13742;49.306;8.636;2023-08-12T00:52:39;100584.72;;;22.80;70.71
25944;BME280;13742;49.306;8.636;2023-08-12T00:53:39;100581.76;;;22.75;71.01
25944;BME280;13742;49.306;8.636;2023-08-12T00:54:39;100582.09;;;22.74;71.05
25944;BME280;13742;49.306;8.636;2023-08-12T00:55:39;100581.16;;;22.74;70.75
25944;BME280;13742;49.306;8.636;2023-08-12T00:56:39;100575.23;;;22.72;71.21
25944;BME280;13742;49.306;8.636;2023-08-12T00:57:39;100577.75;;;22.70;71.33
25944;BME280;13742;49.306;8.636;2023-08-12T00:58:39;100575.91;;;22.68;71.09
25944;BME280;13742;49.306;8.636;2023-08-12T00:59:39;100578.46;;;22.66;71.69
25944;BME280;13742;49.306;8.636;2023-08-12T01:00:39;100577.42;;;22.65;71.71
25944;BME280;13742;49.306;8.636;2023-08-12T01:01:39;100573.69;;;22.64;71.49
25944;BME280;13742;49.306;8.636;2023-08-12T01:02:40;100572.23;;;22.64;71.55
25944;BME280;13742;49.306;8.636;2023-08-12T01:03:39;100573.02;;;22.64;71.45
25944;BME280;13742;49.306;8.636;2023-08-12T01:04:40;100571.02;;;22.63;71.26
25944;BME280;13742;49.306;8.636;2023-08-12T01:05:39;100568.30;;;22.64;71.69
25944;BME280;13742;49.306;8.636;2023-08-12T01:06:39;100565.97;;;22.62;71.48
25944;BME280;13742;49.306;8.636;2023-08-12T01:07:39;100565.94;;;22.61;71.32
25944;BME280;13742;49.306;8.636;2023-08-12T01:08:39;100565.37;;;22.60;71.41
25944;BME280;13742;49.306;8.636;2023-08-12T01:09:39;100566.58;;;22.58;71.59
25944;BME280;13742;49.306;8.636;2023-08-12T01:10:40;100563.82;;;22.58;71.31
25944;BME280;13742;49.306;8.636;2023-08-12T01:12:45;100565.53;;;22.57;71.48
25944;BME280;13742;49.306;8.636;2023-08-12T01:13:42;100568.80;;;22.57;70.95
25944;BME280;13742;49.306;8.636;2023-08-12T01:14:43;100568.40;;;22.57;70.95
25944;BME280;13742;49.306;8.636;2023-08-12T01:15:39;100568.73;;;22.57;70.95
25944;BME280;13742;49.306;8.636;2023-08-12T01:16:40;100570.38;;;22.56;70.79
25944;BME280;13742;49.306;8.636;2023-08-12T01:17:40;100570.72;;;22.56;70.67
25944;BME280;13742;49.306;8.636;2023-08-12T01:18:39;100570.82;;;22.57;71.05
25944;BME280;13742;49.306;8.636;2023-08-12T01:19:40;100569.61;;;22.56;70.65
25944;BME280;13742;49.306;8.636;2023-08-12T01:20:39;100568.47;;;22.57;70.68
25944;BME280;13742;49.306;8.636;2023-08-12T01:21:41;100568.67;;;22.57;70.85
25944;BME280;13742;49.306;8.636;2023-08-12T01:22:40;100565.97;;;22.58;70.91
25944;BME280;13742;49.306;8.636;2023-08-12T01:23:39;100565.97;;;22.58;71.00
25944;BME280;13742;49.306;8.636;2023-08-12T01:24:40;100566.98;;;22.58;70.92
25944;BME280;13742;49.306;8.636;2023-08-12T01:25:39;100567.55;;;22.57;71.14
25944;BME280;13742;49.306;8.636;2023-08-12T01:26:39;100565.13;;;22.57;71.25
25944;BME280;13742;49.306;8.636;2023-08-12T01:27:39;100572.61;;;22.57;71.25
25944;BME280;13742;49.306;8.636;2023-08-12T01:28:39;100569.30;;;22.56;71.38
25944;BME280;13742;49.306;8.636;2023-08-12T01:29:44;100570.18;;;22.55;71.59
25944;BME280;13742;49.306;8.636;2023-08-12T01:30:43;100572.27;;;22.55;71.31
25944;BME280;13742;49.306;8.636;2023-08-12T01:31:43;100575.20;;;22.54;70.88
25944;BME280;13742;49.306;8.636;2023-08-12T01:33:44;100575.53;;;22.52;71.47
25944;BME280;13742;49.306;8.636;2023-08-12T01:34:42;100573.21;;;22.52;71.25
25944;BME280;13742;49.306;8.636;2023-08-12T01:35:40;100572.84;;;22.52;71.39
25944;BME280;13742;49.306;8.636;2023-08-12T01:36:39;100573.55;;;22.52;71.60
25944;BME280;13742;49.306;8.636;2023-08-12T01:37:39;100573.78;;;22.51;71.69
25944;BME280;13742;49.306;8.636;2023-08-12T01:38:39;100571.97;;;22.50;71.71
25944;BME280;13742;49.306;8.636;2023-08-12T01:39:39;100571.39;;;22.49;71.50
25944;BME280;13742;49.306;8.636;2023-08-12T01:40:40;100573.72;;;22.49;71.23
25944;BME280;13742;49.306;8.636;2023-08-12T01:41:39;100579.94;;;22.49;70.97
25944;BME280;13742;49.306;8.636;2023-08-12T01:42:39;100579.44;;;22.49;71.02
25944;BME280;13742;49.306;8.636;2023-08-12T01:43:39;100579.94;;;22.49;71.11
25944;BME280;13742;49.306;8.636;2023-08-12T01:44:39;100581.66;;;22.49;70.95
25944;BME280;13742;49.306;8.636;2023-08-12T01:45:40;100580.65;;;22.49;71.58
25944;BME280;13742;49.306;8.636;2023-08-12T01:46:39;100581.96;;;22.48;71.55
25944;BME280;13742;49.306;8.636;2023-08-12T01:47:42;100584.28;;;22.48;71.16
25944;BME280;13742;49.306;8.636;2023-08-12T01:48:39;100586.14;;;22.48;71.08
25944;BME280;13742;49.306;8.636;2023-08-12T01:49:39;100587.69;;;22.48;71.64
25944;BME280;13742;49.306;8.636;2023-08-12T01:50:39;100585.36;;;22.49;71.38
25944;BME280;13742;49.306;8.636;2023-08-12T01:51:39;100587.58;;;22.49;71.58
25944;BME280;13742;49.306;8.636;2023-08-12T01:52:39;100587.48;;;22.49;71.34
25944;BME280;13742;49.306;8.636;2023-08-12T01:53:39;100585.63;;;22.48;71.56
25944;BME280;13742;49.306;8.636;2023-08-12T01:54:39;100584.86;;;22.48;71.28
25944;BME280;13742;49.306;8.636;2023-08-12T01:55:44;100583.17;;;22.49;71.23
25944;BME280;13742;49.306;8.636;2023-08-12T01:56:39;100584.32;;;22.48;70.88
25944;BME280;13742;49.306;8.636;2023-08-12T01:57:39;100583.78;;;22.48;70.77
25944;BME280;13742;49.306;8.636;2023-08-12T01:58:39;100581.59;;;22.48;70.91
25944;BME280;13742;49.306;8.636;2023-08-12T01:59:39;100584.19;;;22.49;70.96
25944;BME280;13742;49.306;8.636;2023-08-12T02:00:39;100583.41;;;22.47;70.80
25944;BME280;13742;49.306;8.636;2023-08-12T02:01:39;100580.38;;;22.47;70.72
25944;BME280;13742;49.306;8.636;2023-08-12T02:02:39;100583.45;;;22.48;71.00
25944;BME280;13742;49.306;8.636;2023-08-12T02:03:39;100579.81;;;22.48;70.86
25944;BME280;13742;49.306;8.636;2023-08-12T02:04:39;100581.09;;;22.49;70.84
25944;BME280;13742;49.306;8.636;2023-08-12T02:05:41;100579.73;;;22.48;70.55
25944;BME280;13742;49.306;8.636;2023-08-12T02:06:39;100578.06;;;22.48;70.59
25944;BME280;13742;49.306;8.636;2023-08-12T02:07:39;100579.30;;;22.49;70.44
25944;BME280;13742;49.306;8.636;2023-08-12T02:08:39;100578.59;;;22.50;71.22
25944;BME280;13742;49.306;8.636;2023-08-12T02:09:39;100576.11;;;22.49;71.27
25944;BME280;13742;49.306;8.636;2023-08-12T02:10:39;100580.62;;;22.49;71.24
25944;BME280;13742;49.306;8.636;2023-08-12T02:11:39;100578.33;;;22.50;71.38
25944;BME280;13742;49.306;8.636;2023-08-12T02:12:39;100576.31;;;22.50;71.02
25944;BME280;13742;49.306;8.636;2023-08-12T02:13:39;100577.92;;;22.49;71.38
25944;BME280;13742;49.306;8.636;2023-08-12T02:14:39;100579.06;;;22.49;71.21
25944;BME280;13742;49.306;8.636;2023-08-12T02:15:39;100582.70;;;22.50;71.53
25944;BME280;13742;49.306;8.636;2023-08-12T02:16:39;100581.16;;;22.49;71.54
25944;BME280;13742;49.306;8.636;2023-08-12T02:17:39;100580.81;;;22.49;71.59
25944;BME280;13742;49.306;8.636;2023-08-12T02:18:39;100580.98;;;22.49;71.68
25944;BME280;13742;49.306;8.636;2023-08-12T02:19:39;100584.79;;;22.48;71.10
25944;BME280;13742;49.306;8.636;2023-08-12T02:20:42;100582.50;;;22.49;71.35
25944;BME280;13742;49.306;8.636;2023-08-12T02:21:39;100582.09;;;22.48;71.46
25944;BME280;13742;49.306;8.636;2023-08-12T02:22:39;100585.02;;;22.48;71.37
25944;BME280;13742;49.306;8.636;2023-08-12T02:23:39;100583.58;;;22.47;70.90
25944;BME280;13742;49.306;8.636;2023-08-12T02:24:39;100581.13;;;22.48;71.38
25944;BME280;13742;49.306;8.636;2023-08-12T02:25:39;100584.28;;;22.47;71.32
25944;BME280;13742;49.306;8.636;2023-08-12T02:26:39;100583.84;;;22.46;71.39
25944;BME280;13742;49.306;8.636;2023-08-12T02:27:39;100584.69;;;22.45;72.03
25944;BME280;13742;49.306;8.636;2023-08-12T02:28:39;100583.17;;;22.45;71.72
25944;BME280;13742;49.306;8.636;2023-08-12T02:29:39;100583.58;;;22.45;71.90
25944;BME280;13742;49.306;8.636;2023-08-12T02:30:41;100580.78;;;22.42;71.95
25944;BME280;13742;49.306;8.636;2023-08-12T02:31:39;100582.30;;;22.42;72.25
25944;BME280;13742;49.306;8.636;2023-08-12T02:32:39;100583.27;;;22.41;71.93
25944;BME280;13742;49.306;8.636;2023-08-12T02:33:39;100583.50;;;22.40;72.26
25944;BME280;13742;49.306;8.636;2023-08-12T02:34:39;100584.31;;;22.40;71.88
25944;BME280;13742;49.306;8.636;2023-08-12T02:35:39;100579.50;;;22.39;72.36
25944;BME280;13742;49.306;8.636;2023-08-12T02:36:39;100581.11;;;22.37;72.42
25944;BME280;13742;49.306;8.636;2023-08-12T02:37:39;100582.92;;;22.36;72.47
25944;BME280;13742;49.306;8.636;2023-08-12T02:38:39;100584.51;;;22.35;72.35
25944;BME280;13742;49.306;8.636;2023-08-12T02:39:39;100583.03;;;22.34;72.27
25944;BME280;13742;49.306;8.636;2023-08-12T02:40:39;100584.94;;;22.32;72.67
25944;BME280;13742;49.306;8.636;2023-08-12T02:41:39;100581.75;;;22.32;72.42
25944;BME280;13742;49.306;8.636;2023-08-12T02:42:39;100584.06;;;22.31;72.66
25944;BME280;13742;49.306;8.636;2023-08-12T02:43:39;100584.47;;;22.30;72.48
25944;BME280;13742;49.306;8.636;2023-08-12T02:44:39;100586.52;;;22.29;72.64
25944;BME280;13742;49.306;8.636;2023-08-12T02:45:39;100587.80;;;22.29;72.54
25944;BME280;13742;49.306;8.636;2023-08-12T02:46:39;100586.52;;;22.28;72.87
25944;BME280;13742;49.306;8.636;2023-08-12T02:47:39;100588.03;;;22.28;72.55
25944;BME280;13742;49.306;8.636;2023-08-12T02:48:39;100586.66;;;22.28;72.88
25944;BME280;13742;49.306;8.636;2023-08-12T02:49:39;100585.71;;;22.27;72.71
25944;BME280;13742;49.306;8.636;2023-08-12T02:50:39;100583.02;;;22.27;72.75
25944;BME280;13742;49.306;8.636;2023-08-12T02:51:39;100585.84;;;22.26;72.56
25944;BME280;13742;49.306;8.636;2023-08-12T02:52:39;100583.76;;;22.26;72.63
25944;BME280;13742;49.306;8.636;2023-08-12T02:53:39;100584.13;;;22.25;72.33
25944;BME280;13742;49.306;8.636;2023-08-12T02:54:39;100584.90;;;22.25;72.45
25944;BME280;13742;49.306;8.636;2023-08-12T02:55:39;100588.60;;;22.25;72.22
25944;BME280;13742;49.306;8.636;2023-08-12T02:56:40;100584.53;;;22.25;72.59
25944;BME280;13742;49.306;8.636;2023-08-12T02:57:39;100587.86;;;22.26;72.71
25944;BME280;13742;49.306;8.636;2023-08-12T02:58:39;100587.92;;;22.25;72.37
25944;BME280;13742;49.306;8.636;2023-08-12T02:59:39;100589.27;;;22.26;72.52
25944;BME280;13742;49.306;8.636;2023-08-12T03:00:42;100585.70;;;22.24;72.84
25944;BME280;13742;49.306;8.636;2023-08-12T03:01:40;100587.12;;;22.24;72.63
25944;BME280;13742;49.306;8.636;2023-08-12T03:02:42;100586.98;;;22.23;72.86
25944;BME280;13742;49.306;8.636;2023-08-12T03:03:39;100589.38;;;22.23;72.47
25944;BME280;13742;49.306;8.636;2023-08-12T03:04:39;100587.59;;;22.23;72.32
25944;BME280;13742;49.306;8.636;2023-08-12T03:05:40;100589.27;;;22.23;72.45
25944;BME280;13742;49.306;8.636;2023-08-12T03:06:39;100591.05;;;22.23;72.63
25944;BME280;13742;49.306;8.636;2023-08-12T03:07:39;100590.68;;;22.22;72.22
25944;BME280;13742;49.306;8.636;2023-08-12T03:08:39;100588.23;;;22.21;72.20
25944;BME280;13742;49.306;8.636;2023-08-12T03:09:39;100585.03;;;22.22;71.94
25944;BME280;13742;49.306;8.636;2023-08-12T03:10:40;100585.88;;;22.22;72.11
25944;BME280;13742;49.306;8.636;2023-08-12T03:11:39;100580.76;;;22.23;72.06
25944;BME280;13742;49.306;8.636;2023-08-12T03:12:39;100578.97;;;22.22;71.84
25944;BME280;13742;49.306;8.636;2023-08-12T03:13:39;100581.23;;;22.22;71.74
25944;BME280;13742;49.306;8.636;2023-08-12T03:14:39;100581.73;;;22.22;71.65
25944;BME280;13742;49.306;8.636;2023-08-12T03:15:40;100584.86;;;22.21;71.56
25944;BME280;13742;49.306;8.636;2023-08-12T03:16:39;100586.20;;;22.22;72.02
25944;BME280;13742;49.306;8.636;2023-08-12T03:17:39;100591.83;;;22.22;71.73
25944;BME280;13742;49.306;8.636;2023-08-12T03:18:39;100590.08;;;22.22;71.92
25944;BME280;13742;49.306;8.636;2023-08-12T03:19:39;100589.17;;;22.23;71.89
25944;BME280;13742;49.306;8.636;2023-08-12T03:20:39;100588.94;;;22.23;72.04
25944;BME280;13742;49.306;8.636;2023-08-12T03:21:39;100585.84;;;22.24;72.05
25944;BME280;13742;49.306;8.636;2023-08-12T03:22:39;100581.53;;;22.23;72.39
25944;BME280;13742;49.306;8.636;2023-08-12T03:23:40;100581.30;;;22.23;72.13
25944;BME280;13742;49.306;8.636;2023-08-12T03:24:39;100584.49;;;22.24;71.88
25944;BME280;13742;49.306;8.636;2023-08-12T03:25:39;100580.02;;;22.23;71.68
25944;BME280;13742;49.306;8.636;2023-08-12T03:26:39;100577.59;;;22.24;71.98
25944;BME280;13742;49.306;8.636;2023-08-12T03:27:39;100577.42;;;22.23;71.97
25944;BME280;13742;49.306;8.636;2023-08-12T03:28:39;100574.80;;;22.23;72.05
25944;BME280;13742;49.306;8.636;2023-08-12T03:29:39;100572.05;;;22.23;72.22
25944;BME280;13742;49.306;8.636;2023-08-12T03:30:39;100568.41;;;22.23;71.99
25944;BME280;13742;49.306;8.636;2023-08-12T03:31:39;100571.27;;;22.23;71.92
25944;BME280;13742;49.306;8.636;2023-08-12T03:32:39;100567.53;;;22.22;72.41
25944;BME280;13742;49.306;8.636;2023-08-12T03:33:39;100565.75;;;22.22;72.40
25944;BME280;13742;49.306;8.636;2023-08-12T03:34:39;100562.89;;;22.21;72.82
25944;BME280;13742;49.306;8.636;2023-08-12T03:35:39;100565.91;;;22.21;72.51
25944;BME280;13742;49.306;8.636;2023-08-12T03:36:39;100564.37;;;22.20;72.41
25944;BME280;13742;49.306;8.636;2023-08-12T03:37:39;100562.28;;;22.20;72.21
25944;BME280;13742;49.306;8.636;2023-08-12T03:38:39;100561.20;;;22.21;72.27
25944;BME280;13742;49.306;8.636;2023-08-12T03:39:39;100562.78;;;22.21;72.11
25944;BME280;13742;49.306;8.636;2023-08-12T03:40:39;100564.03;;;22.21;72.44
25944;BME280;13742;49.306;8.636;2023-08-12T03:41:39;100562.34;;;22.20;73.04
25944;BME280;13742;49.306;8.636;2023-08-12T03:42:39;100567.06;;;22.20;72.50
25944;BME280;13742;49.306;8.636;2023-08-12T03:43:39;100563.97;;;22.21;72.75
25944;BME280;13742;49.306;8.636;2023-08-12T03:44:39;100562.34;;;22.20;72.41
25944;BME280;13742;49.306;8.636;2023-08-12T03:45:42;100560.16;;;22.16;73.86
25944;BME280;13742;49.306;8.636;2023-08-12T03:46:39;100560.73;;;22.15;74.17
25944;BME280;13742;49.306;8.636;2023-08-12T03:47:39;100561.34;;;22.04;74.96
25944;BME280;13742;49.306;8.636;2023-08-12T03:48:39;100563.73;;;21.90;75.72
25944;BME280;13742;49.306;8.636;2023-08-12T03:49:39;100563.53;;;21.89;76.02
25944;BME280;13742;49.306;8.636;2023-08-12T03:50:39;100557.28;;;21.91;75.89
25944;BME280;13742;49.306;8.636;2023-08-12T03:51:39;100559.14;;;21.96;75.58
25944;BME280;13742;49.306;8.636;2023-08-12T03:52:39;100555.88;;;21.97;75.51
25944;BME280;13742;49.306;8.636;2023-08-12T03:53:39;100560.25;;;21.98;75.29
25944;BME280;13742;49.306;8.636;2023-08-12T03:54:39;100555.22;;;21.99;74.81
25944;BME280;13742;49.306;8.636;2023-08-12T03:55:39;100555.98;;;22.00;74.28
25944;BME280;13742;49.306;8.636;2023-08-12T03:56:39;100558.65;;;22.01;74.34
25944;BME280;13742;49.306;8.636;2023-08-12T03:57:39;100555.16;;;22.02;74.43
25944;BME280;13742;49.306;8.636;2023-08-12T03:58:39;100552.97;;;22.02;74.24
25944;BME280;13742;49.306;8.636;2023-08-12T03:59:39;100553.44;;;22.03;73.95
25944;BME280;13742;49.306;8.636;2023-08-12T04:00:42;100552.43;;;22.04;73.68
25944;BME280;13742;49.306;8.636;2023-08-12T04:01:39;100548.66;;;22.04;73.44
25944;BME280;13742;49.306;8.636;2023-08-12T04:02:39;100547.99;;;22.04;73.49
25944;BME280;13742;49.306;8.636;2023-08-12T04:03:39;100545.34;;;22.05;74.51
25944;BME280;13742;49.306;8.636;2023-08-12T04:04:39;100547.66;;;22.06;74.17
25944;BME280;13742;49.306;8.636;2023-08-12T04:05:46;100546.41;;;22.07;74.24
25944;BME280;13742;49.306;8.636;2023-08-12T04:06:39;100548.53;;;22.08;74.36
25944;BME280;13742;49.306;8.636;2023-08-12T04:07:39;100545.58;;;22.07;74.28
25944;BME280;13742;49.306;8.636;2023-08-12T04:08:39;100551.06;;;22.08;75.15
25944;BME280;13742;49.306;8.636;2023-08-12T04:09:39;100554.16;;;22.07;75.91
25944;BME280;13742;49.306;8.636;2023-08-12T04:10:39;100555.77;;;22.08;75.64
25944;BME280;13742;49.306;8.636;2023-08-12T04:11:39;100560.84;;;22.06;76.29
25944;BME280;13742;49.306;8.636;2023-08-12T04:12:39;100566.31;;;22.01;76.67
25944;BME280;13742;49.306;8.636;2023-08-12T04:13:39;100566.65;;;21.99;76.79
25944;BME280;13742;49.306;8.636;2023-08-12T04:14:40;100567.33;;;22.01;76.29
25944;BME280;13742;49.306;8.636;2023-08-12T04:15:39;100568.33;;;22.01;76.38
25944;BME280;13742;49.306;8.636;2023-08-12T04:16:39;100573.73;;;21.97;76.92
25944;BME280;13742;49.306;8.636;2023-08-12T04:17:40;100577.27;;;21.94;77.04
25944;BME280;13742;49.306;8.636;2023-08-12T04:18:39;100582.69;;;21.96;76.37
25944;BME280;13742;49.306;8.636;2023-08-12T04:19:39;100578.69;;;21.97;75.81
25944;BME280;13742;49.306;8.636;2023-08-12T04:20:39;100580.97;;;21.98;75.47
25944;BME280;13742;49.306;8.636;2023-08-12T04:21:39;100576.27;;;21.98;75.13
25944;BME280;13742;49.306;8.636;2023-08-12T04:22:39;100574.39;;;21.99;75.87
25944;BME280;13742;49.306;8.636;2023-08-12T04:23:39;100578.25;;;21.99;76.05
25944;BME280;13742;49.306;8.636;2023-08-12T04:24:39;100578.83;;;21.99;75.66
25944;BME280;13742;49.306;8.636;2023-08-12T04:25:39;100581.31;;;21.97;75.47
25944;BME280;13742;49.306;8.636;2023-08-12T04:26:39;100581.08;;;21.97;75.23
25944;BME280;13742;49.306;8.636;2023-08-12T04:27:39;100581.82;;;22.00;75.96
25944;BME280;13742;49.306;8.636;2023-08-12T04:28:39;100577.24;;;21.99;76.07
25944;BME280;13742;49.306;8.636;2023-08-12T04:29:39;100580.53;;;21.97;75.93
25944;BME280;13742;49.306;8.636;2023-08-12T04:30:43;100579.36;;;21.97;75.77
25944;BME280;13742;49.306;8.636;2023-08-12T04:31:40;100578.08;;;21.97;75.48
25944;BME280;13742;49.306;8.636;2023-08-12T04:32:39;100584.10;;;21.98;74.98
25944;BME280;13742;49.306;8.636;2023-08-12T04:33:39;100585.89;;;21.99;75.03
25944;BME280;13742;49.306;8.636;2023-08-12T04:34:39;100584.17;;;22.00;75.94
25944;BME280;13742;49.306;8.636;2023-08-12T04:35:42;100586.53;;;22.00;75.35
25944;BME280;13742;49.306;8.636;2023-08-12T04:36:39;100585.45;;;22.01;75.75
25944;BME280;13742;49.306;8.636;2023-08-12T04:37:39;100583.34;;;22.00;75.37
25944;BME280;13742;49.306;8.636;2023-08-12T04:38:39;100581.92;;;22.01;75.17
25944;BME280;13742;49.306;8.636;2023-08-12T04:39:40;100580.34;;;22.01;75.26
25944;BME280;13742;49.306;8.636;2023-08-12T04:40:40;100587.11;;;22.02;75.06
25944;BME280;13742;49.306;8.636;2023-08-12T04:41:39;100585.33;;;22.02;74.89
25944;BME280;13742;49.306;8.636;2023-08-12T04:42:39;100591.31;;;22.02;74.79
25944;BME280;13742;49.306;8.636;2023-08-12T04:43:39;100587.78;;;22.02;74.63
25944;BME280;13742;49.306;8.636;2023-08-12T04:44:39;100589.97;;;22.02;74.47
25944;BME280;13742;49.306;8.636;2023-08-12T04:45:39;100590.06;;;22.03;74.40
25944;BME280;13742;49.306;8.636;2023-08-12T04:46:39;100591.08;;;22.05;75.07
25944;BME280;13742;49.306;8.636;2023-08-12T04:47:39;100584.56;;;22.06;75.61
25944;BME280;13742;49.306;8.636;2023-08-12T04:48:39;100579.64;;;22.05;75.42
25944;BME280;13742;49.306;8.636;2023-08-12T04:49:39;100574.60;;;22.05;75.46
25944;BME280;13742;49.306;8.636;2023-08-12T04:50:39;100573.53;;;22.06;75.19
25944;BME280;13742;49.306;8.636;2023-08-12T04:51:39;100571.44;;;22.06;74.98
25944;BME280;13742;49.306;8.636;2023-08-12T04:52:39;100572.72;;;22.07;74.73
25944;BME280;13742;49.306;8.636;2023-08-12T04:53:39;100574.67;;;22.07;74.68
25944;BME280;13742;49.306;8.636;2023-08-12T04:54:39;100578.07;;;22.08;74.77
25944;BME280;13742;49.306;8.636;2023-08-12T04:55:39;100574.78;;;22.08;75.04
25944;BME280;13742;49.306;8.636;2023-08-12T04:56:39;100576.22;;;22.08;75.60
25944;BME280;13742;49.306;8.636;2023-08-12T04:57:39;100572.86;;;22.08;75.92
25944;BME280;13742;49.306;8.636;2023-08-12T04:58:39;100571.01;;;22.08;74.94
25944;BME280;13742;49.306;8.636;2023-08-12T04:59:39;100567.78;;;22.09;75.78
25944;BME280;13742;49.306;8.636;2023-08-12T05:00:39;100566.27;;;22.10;75.57
25944;BME280;13742;49.306;8.636;2023-08-12T05:01:39;100563.55;;;22.11;76.44
25944;BME280;13742;49.306;8.636;2023-08-12T05:02:39;100557.32;;;22.11;76.09
25944;BME280;13742;49.306;8.636;2023-08-12T05:03:39;100558.56;;;22.10;76.34
25944;BME280;13742;49.306;8.636;2023-08-12T05:04:39;100554.86;;;22.11;76.20
25944;BME280;13742;49.306;8.636;2023-08-12T05:05:39;100555.70;;;22.11;76.10
25944;BME280;13742;49.306;8.636;2023-08-12T05:06:40;100559.10;;;22.09;76.74
25944;BME280;13742;49.306;8.636;2023-08-12T05:07:39;100562.50;;;22.10;76.94
25944;BME280;13742;49.306;8.636;2023-08-12T05:08:39;100557.95;;;22.10;76.06
25944;BME280;13742;49.306;8.636;2023-08-12T05:09:39;100560.19;;;22.11;76.76
25944;BME280;13742;49.306;8.636;2023-08-12T05:10:39;100557.32;;;22.11;76.35
25944;BME280;13742;49.306;8.636;2023-08-12T05:11:39;100559.58;;;22.10;75.66
25944;BME280;13742;49.306;8.636;2023-08-12T05:12:39;100563.48;;;22.11;75.60
25944;BME280;13742;49.306;8.636;2023-08-12T05:13:39;100563.64;;;22.11;75.33
25944;BME280;13742;49.306;8.636;2023-08-12T05:14:39;100565.73;;;22.11;75.20
25944;BME280;13742;49.306;8.636;2023-08-12T05:15:39;100564.83;;;22.11;75.00